Malaga, Spain
Current Conditions -  °F | °C
As of 11:00 PM on Tuesday 25 Nov 2014 (Local Time) from LEMG Reporting Station
Scattered Clouds Scattered Clouds  
Wind Chill: 63°   Ceiling: Unl
Heat Index: 63°   Visibility: 6mi
Dew Point: 54°   Wind: 9mph
Humidity: 72%   Direction: 280°W
Pressure: 30.03"   Gusts: NA
Location:  36.72°N, 4.42°W
Report Text: LEMG 252200Z 28008KT 9999 SCT050 SCT080 17/12 Q1017 NOSIG
Loading
Personal Weather Stations






























Interactive Weather Map New forecast layout! Learn more

10-Day Weather Forecast

Advertisements
Track Severe Weather on mobile